Koun Maru — JK5556 — position and weather

sailwx.info

Track history (hours):
 
Tides and Currents Weather Stations Pressure Air Temp Water Temp Dewpoint Dewpoint Depression Visibility Wind Speed Wind Dir Waves Ship Positions

Koun Maru

Last reported at 2015-Apr-17 17:33 UTC. Time now 2015-Apr-19 09:28 UTC.
Position N 34°38' E 135°23'.

Length 40 m.

Type: Tanker. MMSI: 431401871.

Date/timePositionNaut miles runAvg speedWind from/ knotsBaromVisibWave heightAir tempDewpointWater temp
2015-Apr-17 17:33N 34°38' E 135°23'1010.3
2015-Apr-17 16:33N 34°37' E 135°11'  
2015-Apr-13 23:23N 34°10' E 135°06'2110.0
2015-Apr-13 21:17N 34°30' E 135°15'810.9
2015-Apr-13 20:31N 34°35' E 135°23'5 0.5
2015-Apr-13 09:32N 34°40' E 135°21'6 5.7
2015-Apr-13 08:26N 34°40' E 135°13'0 0.0
2015-Apr-13 07:33N 34°40' E 135°13'0 0.0
2015-Apr-13 06:29N 34°40' E 135°13'0 0.1
2015-Apr-13 05:25N 34°40' E 135°13'0 0.0
2015-Apr-13 04:29N 34°40' E 135°13'0 0.0
2015-Apr-13 03:26N 34°40' E 135°13'0 0.0
2015-Apr-13 02:26N 34°40' E 135°13'1 1.7
2015-Apr-13 01:33N 34°40' E 135°15'9 2.1
2015-Apr-12 21:23N 34°36' E 135°25'3 0.1
2015-Apr-11 07:22N 34°39' E 135°27'910.3
2015-Apr-11 06:31N 34°42' E 135°17'2 1.9
2015-Apr-11 05:33N 34°42' E 135°15'0 0.0
2015-Apr-11 04:32N 34°42' E 135°15'0 0.0
2015-Apr-11 03:33N 34°42' E 135°15'0 0.2
2015-Apr-11 02:33N 34°42' E 135°14'0 0.0
2015-Apr-11 01:32N 34°42' E 135°15'12 1.2
2015-Apr-10 15:14N 34°33' E 135°25'810.4
2015-Apr-10 14:30N 34°34' E 135°16'1010.3
2015-Apr-10 13:31N 34°35' E 135°04'  
2015-Apr-08 09:03N 34°09' E 135°06'711.1
2015-Apr-08 08:27N 34°15' E 135°03'2410.0
2015-Apr-08 06:05N 34°34' E 135°20'0 0.0
2015-Apr-08 05:33N 34°34' E 135°20'0 0.0
2015-Apr-08 03:23N 34°34' E 135°20'0 0.0
2015-Apr-08 02:29N 34°34' E 135°20'0 0.0
2015-Apr-08 01:10N 34°34' E 135°20'  
Track history (hours):
 
Tides and Currents Weather Stations Pressure Air Temp Water Temp Dewpoint Dewpoint Depression Visibility Wind Speed Wind Dir Waves Ship Positions

Koun Maru

Last reported at 2015-Apr-17 17:33 UTC. Time now 2015-Apr-19 09:28 UTC.
Position N 34°38' E 135°23'.

Length 40 m.

Type: Tanker. MMSI: 431401871.

Date/timePositionNaut miles runAvg speedWind from/ knotsBaromVisibWave heightAir tempDewpointWater temp
2015-Apr-17 17:33N 34°38' E 135°23'1010.3
2015-Apr-17 16:33N 34°37' E 135°11'  
2015-Apr-13 23:23N 34°10' E 135°06'2110.0
2015-Apr-13 21:17N 34°30' E 135°15'810.9
2015-Apr-13 20:31N 34°35' E 135°23'5 0.5
2015-Apr-13 09:32N 34°40' E 135°21'6 5.7
2015-Apr-13 08:26N 34°40' E 135°13'0 0.0
2015-Apr-13 07:33N 34°40' E 135°13'0 0.0
2015-Apr-13 06:29N 34°40' E 135°13'0 0.1
2015-Apr-13 05:25N 34°40' E 135°13'0 0.0
2015-Apr-13 04:29N 34°40' E 135°13'0 0.0
2015-Apr-13 03:26N 34°40' E 135°13'0 0.0
2015-Apr-13 02:26N 34°40' E 135°13'1 1.7
2015-Apr-13 01:33N 34°40' E 135°15'9 2.1
2015-Apr-12 21:23N 34°36' E 135°25'3 0.1
2015-Apr-11 07:22N 34°39' E 135°27'910.3
2015-Apr-11 06:31N 34°42' E 135°17'2 1.9
2015-Apr-11 05:33N 34°42' E 135°15'0 0.0
2015-Apr-11 04:32N 34°42' E 135°15'0 0.0
2015-Apr-11 03:33N 34°42' E 135°15'0 0.2
2015-Apr-11 02:33N 34°42' E 135°14'0 0.0
2015-Apr-11 01:32N 34°42' E 135°15'12 1.2
2015-Apr-10 15:14N 34°33' E 135°25'810.4
2015-Apr-10 14:30N 34°34' E 135°16'1010.3
2015-Apr-10 13:31N 34°35' E 135°04'  
2015-Apr-08 09:03N 34°09' E 135°06'711.1
2015-Apr-08 08:27N 34°15' E 135°03'2410.0
2015-Apr-08 06:05N 34°34' E 135°20'0 0.0
2015-Apr-08 05:33N 34°34' E 135°20'0 0.0
2015-Apr-08 03:23N 34°34' E 135°20'0 0.0
2015-Apr-08 02:29N 34°34' E 135°20'0 0.0
2015-Apr-08 01:10N 34°34' E 135°20'  

Dump ship's entire track history